Samskip Ice — C6SO4 — position and weather

sailwx.info

Track history (hours):
 
Tides and Currents Weather Stations Pressure Air Temp Water Temp Dewpoint Dewpoint Depression Visibility Wind Speed Wind Dir Waves Ship Positions

Samskip Ice

Last reported at 2017-Nov-25 01:58 UTC. Time now 2017-Nov-25 02:12 UTC.
Position N 59°18' E 005°19'.

Length 86 m; draft 5.4 m.

Type: Cargo ship. MMSI: 311411000.

Date/timePositionNaut miles runAvg speedWind from/ knotsBaromVisibWave heightAir tempDewpointWater temp
2017-Nov-25 01:58N 59°18' E 005°19'0 0.1
2017-Nov-25 01:28N 59°18' E 005°19'0 0.1
2017-Nov-25 00:58N 59°18' E 005°19'0 0.0
2017-Nov-25 00:28N 59°18' E 005°19'0 0.0
2017-Nov-24 23:58N 59°18' E 005°19'0 0.1
2017-Nov-24 23:28N 59°18' E 005°19'0 0.0
2017-Nov-24 22:58N 59°18' E 005°19'0 0.0
2017-Nov-24 22:28N 59°18' E 005°19'0 0.0
2017-Nov-24 21:58N 59°18' E 005°19'0 0.1
2017-Nov-24 21:28N 59°18' E 005°19'0 0.0
2017-Nov-24 20:58N 59°18' E 005°19'0 0.1
2017-Nov-24 20:28N 59°18' E 005°19'0 0.1
2017-Nov-24 19:58N 59°18' E 005°19'0 0.0
2017-Nov-24 19:28N 59°18' E 005°19'0 0.0
2017-Nov-24 18:58N 59°18' E 005°19'0 0.0
2017-Nov-24 18:28N 59°18' E 005°19'0 0.0
2017-Nov-24 17:58N 59°18' E 005°19'0 0.1
2017-Nov-24 17:28N 59°18' E 005°19'0 0.0
2017-Nov-24 16:58N 59°18' E 005°19'0 0.0
2017-Nov-24 16:28N 59°18' E 005°19'0 0.0
2017-Nov-24 15:58N 59°18' E 005°19'0 0.0
2017-Nov-24 15:28N 59°18' E 005°19'0 0.0
2017-Nov-24 14:58N 59°18' E 005°19'0 0.1
2017-Nov-24 14:28N 59°18' E 005°19'0 0.0
2017-Nov-24 13:58N 59°18' E 005°19'0 0.0
2017-Nov-24 13:28N 59°18' E 005°19'0 0.1
2017-Nov-24 12:58N 59°18' E 005°19'0 0.0
2017-Nov-24 12:28N 59°18' E 005°19'0 0.0
2017-Nov-24 11:58N 59°18' E 005°19'0 0.0
2017-Nov-24 11:28N 59°18' E 005°19'0 0.0
2017-Nov-24 10:58N 59°18' E 005°19'0 0.0
2017-Nov-24 10:28N 59°18' E 005°19'0 0.0
2017-Nov-24 09:58N 59°18' E 005°19'0 0.0
2017-Nov-24 09:28N 59°18' E 005°19'1 1.2
2017-Nov-24 09:00N 59°18' E 005°20'4 8.0
2017-Nov-24 08:30N 59°14' E 005°21'4 7.8
2017-Nov-24 08:00N 59°10' E 005°21'3 7.2
2017-Nov-24 07:30N 59°06' E 005°20'510.4
2017-Nov-24 07:00N 59°03' E 005°13'510.4
2017-Nov-24 06:30N 59°05' E 005°03'510.8
2017-Nov-24 06:00N 59°08' E 004°55'96 9.7
2017-Nov-23 20:11N 60°42' E 004°19'210.3
2017-Nov-23 20:00N 60°44' E 004°19'510.5
2017-Nov-23 19:30N 60°49' E 004°19'510.9
2017-Nov-23 19:00N 60°54' E 004°18'511.0
2017-Nov-23 18:30N 60°60' E 004°18'610.8
2017-Nov-23 18:00N 61°05' E 004°19'511.2
2017-Nov-23 17:30N 61°11' E 004°19'611.7
2017-Nov-23 17:00N 61°17' E 004°21'611.8
2017-Nov-23 16:30N 61°23' E 004°22'612.4
2017-Nov-23 16:00N 61°29' E 004°23'612.5
2017-Nov-23 15:30N 61°35' E 004°25'612.4
2017-Nov-23 15:00N 61°41' E 004°27'612.0
2017-Nov-23 14:30N 61°47' E 004°31'612.1
2017-Nov-23 14:00N 61°52' E 004°36'612.3
2017-Nov-23 13:30N 61°58' E 004°41'612.3
2017-Nov-23 12:59N 62°04' E 004°46'612.0
2017-Nov-23 12:30N 62°09' E 004°51'612.1
2017-Nov-23 12:00N 62°15' E 004°56'611.4
2017-Nov-23 11:30N 62°19' E 005°04'612.0
2017-Nov-23 11:00N 62°22' E 005°15'612.3
2017-Nov-23 10:30N 62°26' E 005°26'612.1
2017-Nov-23 10:00N 62°29' E 005°37'611.8
2017-Nov-23 09:30N 62°29' E 005°50'612.7
2017-Nov-23 09:00N 62°27' E 006°03'4 8.7
2017-Nov-23 08:30N 62°31' E 006°09'5 9.9
2017-Nov-23 08:00N 62°35' E 006°14'4 8.3
2017-Nov-23 07:30N 62°39' E 006°17'2 3.9
2017-Nov-23 07:00N 62°41' E 006°14'0 0.0
2017-Nov-23 06:30N 62°41' E 006°14'0 0.0
2017-Nov-23 06:00N 62°41' E 006°14'0 0.0
2017-Nov-23 05:30N 62°41' E 006°14'0 0.0
2017-Nov-23 05:00N 62°41' E 006°14'0 0.0
2017-Nov-23 04:30N 62°41' E 006°14'0 0.0
2017-Nov-23 03:59N 62°41' E 006°14'0 0.9
2017-Nov-23 03:30N 62°40' E 006°15'4 8.7
2017-Nov-23 03:00N 62°39' E 006°24'611.8
2017-Nov-23 02:30N 62°44' E 006°31'612.4
2017-Nov-23 02:00N 62°49' E 006°38'612.1
2017-Nov-23 01:30N 62°54' E 006°46'510.5
2017-Nov-23 01:00N 62°53' E 006°57'0 0.5
2017-Nov-23 00:29N 62°53' E 006°58'0 0.0
2017-Nov-22 23:59N 62°53' E 006°58'0 0.0
2017-Nov-22 23:29N 62°53' E 006°58'0 0.0
2017-Nov-22 22:59N 62°53' E 006°58'0 0.0
2017-Nov-22 22:29N 62°53' E 006°58'1 1.5
2017-Nov-22 22:00N 62°53' E 006°56'1 1.7
2017-Nov-22 21:30N 62°53' E 006°54'4 9.1
2017-Nov-22 21:00N 62°57' E 006°51'611.8
2017-Nov-22 20:30N 63°01' E 007°03'613.0
2017-Nov-22 20:00N 63°03' E 007°16'612.9
2017-Nov-22 19:30N 63°05' E 007°29'  
2017-Nov-18 23:30N 54°57' E 018°20'511.0
2017-Nov-18 23:00N 54°57' E 018°30'510.6
2017-Nov-18 22:31N 54°56' E 018°39'611.5
2017-Nov-18 22:00N 54°52' E 018°47'611.6
2017-Nov-18 21:31N 54°48' E 018°54'510.6
2017-Nov-18 21:00N 54°44' E 018°59'612.6
2017-Nov-18 20:30N 54°38' E 018°56'612.8
2017-Nov-18 20:01N 54°32' E 018°49'612.9
2017-Nov-18 19:31N 54°28' E 018°42'3 6.7
2017-Nov-18 19:01N 54°25' E 018°40'0 0.0
2017-Nov-18 18:30N 54°25' E 018°40'0 0.0
2017-Nov-18 18:00N 54°25' E 018°40'0 0.0
2017-Nov-18 17:30N 54°25' E 018°40'0 0.0
2017-Nov-18 17:00N 54°25' E 018°40'0 0.0
2017-Nov-18 16:30N 54°25' E 018°40'0 0.0
2017-Nov-18 16:00N 54°25' E 018°40'0 0.0
2017-Nov-18 15:30N 54°25' E 018°40'0 0.0
2017-Nov-18 15:00N 54°25' E 018°40'0 0.0
2017-Nov-18 14:30N 54°25' E 018°40'0 0.0
2017-Nov-18 14:00N 54°25' E 018°40'0 0.0
2017-Nov-18 13:30N 54°25' E 018°40'0 0.0
2017-Nov-18 13:00N 54°25' E 018°40'0 0.0
2017-Nov-18 12:30N 54°25' E 018°40'0 0.0
2017-Nov-18 12:00N 54°25' E 018°40'0 0.0
2017-Nov-18 11:30N 54°25' E 018°40'0 0.0
2017-Nov-18 11:00N 54°25' E 018°40'0 0.0
2017-Nov-18 10:30N 54°25' E 018°40'0 0.0
2017-Nov-18 10:00N 54°25' E 018°40'0 0.0
2017-Nov-18 09:30N 54°25' E 018°40'0 0.0
2017-Nov-18 09:00N 54°25' E 018°40'0 0.0
2017-Nov-18 08:30N 54°25' E 018°40'0 0.0
2017-Nov-18 08:00N 54°25' E 018°40'0 0.0
2017-Nov-18 07:30N 54°25' E 018°40'0 0.0
2017-Nov-18 07:00N 54°25' E 018°40'0 0.0
2017-Nov-18 06:30N 54°25' E 018°40'0 0.0
2017-Nov-18 06:00N 54°25' E 018°40'0 0.0
2017-Nov-18 05:30N 54°25' E 018°40'0 0.0
2017-Nov-18 05:00N 54°25' E 018°40'0 0.0
2017-Nov-18 04:30N 54°25' E 018°40'0 0.0
2017-Nov-18 04:00N 54°25' E 018°40'0 0.0
2017-Nov-18 03:30N 54°25' E 018°40'0 0.0
2017-Nov-18 03:00N 54°25' E 018°40'0 0.0
2017-Nov-18 02:30N 54°25' E 018°40'0 0.0
2017-Nov-18 02:00N 54°25' E 018°40'0 0.0
2017-Nov-18 01:30N 54°25' E 018°40'0 0.0
2017-Nov-18 01:00N 54°25' E 018°40'0 0.0
2017-Nov-18 00:30N 54°25' E 018°40'0 0.0
2017-Nov-18 00:00N 54°25' E 018°40'0 0.0
2017-Nov-17 23:30N 54°25' E 018°40'0 0.0
2017-Nov-17 23:00N 54°25' E 018°40'0 0.0
2017-Nov-17 22:30N 54°25' E 018°40'0 0.0
2017-Nov-17 22:00N 54°25' E 018°40'0 0.0
2017-Nov-17 21:30N 54°25' E 018°40'0 0.0
2017-Nov-17 21:00N 54°25' E 018°40'0 0.0
2017-Nov-17 20:30N 54°25' E 018°40'0 0.0
2017-Nov-17 20:00N 54°25' E 018°40'0 0.0
2017-Nov-17 19:30N 54°25' E 018°40'0 0.0
2017-Nov-17 19:00N 54°25' E 018°40'0 0.0
2017-Nov-17 18:30N 54°25' E 018°40'0 0.0
2017-Nov-17 18:00N 54°25' E 018°40'0 0.0
2017-Nov-17 17:30N 54°25' E 018°40'0 0.0
2017-Nov-17 17:00N 54°25' E 018°40'0 0.0
2017-Nov-17 16:30N 54°25' E 018°40'0 0.0
2017-Nov-17 16:00N 54°25' E 018°40'0 0.0
2017-Nov-17 15:30N 54°25' E 018°40'0 0.0
2017-Nov-17 15:00N 54°25' E 018°40'0 0.0
2017-Nov-17 14:30N 54°25' E 018°40'0 0.0
2017-Nov-17 14:00N 54°25' E 018°40'0 0.0
2017-Nov-17 13:30N 54°25' E 018°40'0 0.0
2017-Nov-17 13:00N 54°25' E 018°40'0 0.0
2017-Nov-17 12:30N 54°25' E 018°40'0 0.0
2017-Nov-17 12:00N 54°25' E 018°40'0 0.0
2017-Nov-17 11:30N 54°25' E 018°40'0 0.0
2017-Nov-17 11:00N 54°25' E 018°40'0 0.0
2017-Nov-17 10:30N 54°25' E 018°40'0 0.0
2017-Nov-17 10:00N 54°25' E 018°40'0 0.0
2017-Nov-17 09:30N 54°25' E 018°40'0 0.0
2017-Nov-17 09:00N 54°25' E 018°40'0 0.0
2017-Nov-17 08:28N 54°25' E 018°40'0 0.0
2017-Nov-17 07:55N 54°25' E 018°40'0 0.0
2017-Nov-16 23:46N 54°25' E 018°40'0 0.0
2017-Nov-16 23:31N 54°25' E 018°40'0 0.0
2017-Nov-16 23:00N 54°25' E 018°40'0 0.0
2017-Nov-16 22:27N 54°25' E 018°40'0 0.0
2017-Nov-16 22:00N 54°25' E 018°40'0 0.0
2017-Nov-16 21:30N 54°25' E 018°40'0 0.0
2017-Nov-16 21:00N 54°25' E 018°40'0 0.0
2017-Nov-16 20:30N 54°25' E 018°40'0 0.0
2017-Nov-16 20:00N 54°25' E 018°40'0 0.0
2017-Nov-16 19:30N 54°25' E 018°40'0 0.0
2017-Nov-16 19:00N 54°25' E 018°40'0 0.0
2017-Nov-16 18:31N 54°25' E 018°40'1 1.9
2017-Nov-16 18:01N 54°25' E 018°39'510.3
2017-Nov-16 17:31N 54°30' E 018°44'612.1
2017-Nov-16 17:01N 54°34' E 018°51'611.8
2017-Nov-16 16:31N 54°39' E 018°56'4 7.9
2017-Nov-16 16:01N 54°43' E 018°58'5 9.9
2017-Nov-16 15:31N 54°48' E 018°54'611.9
2017-Nov-16 15:01N 54°51' E 018°46'612.1
2017-Nov-16 14:31N 54°55' E 018°37'612.5
2017-Nov-16 14:01N 54°56' E 018°27'612.5
2017-Nov-16 13:30N 54°56' E 018°16'17811.4
2017-Nov-15 21:49N 55°09' E 013°05'412.3
2017-Nov-15 21:29N 55°11' E 012°59'912.3
2017-Nov-15 20:44N 55°16' E 012°45'312.5
2017-Nov-15 20:31N 55°17' E 012°41'510.2
2017-Nov-15 20:01N 55°22' E 012°38'612.1
2017-Nov-15 19:31N 55°28' E 012°40'611.8
2017-Nov-15 19:01N 55°34' E 012°42'611.8
2017-Nov-15 18:30N 55°40' E 012°41'612.2
2017-Nov-15 18:01N 55°46' E 012°41'611.4
2017-Nov-15 17:31N 55°51' E 012°40'611.9
2017-Nov-15 17:01N 55°57' E 012°38'611.9
2017-Nov-15 16:31N 56°03' E 012°38'611.8
2017-Nov-15 16:00N 56°07' E 012°31'6811.9
2017-Nov-15 10:21N 57°08' E 011°36'512.3
2017-Nov-15 09:56N 57°13' E 011°33'512.6
2017-Nov-15 09:30N 57°18' E 011°31'612.7
2017-Nov-15 08:59N 57°24' E 011°27'612.6
2017-Nov-15 08:31N 57°29' E 011°21'612.7
2017-Nov-15 08:00N 57°33' E 011°12'612.9
2017-Nov-15 07:30N 57°38' E 011°03'612.9
2017-Nov-15 07:00N 57°42' E 010°55'712.6
2017-Nov-15 06:29N 57°46' E 010°45'611.4
2017-Nov-15 05:56N 57°46' E 010°33'  
Track history (hours):
 
Tides and Currents Weather Stations Pressure Air Temp Water Temp Dewpoint Dewpoint Depression Visibility Wind Speed Wind Dir Waves Ship Positions

Samskip Ice

Last reported at 2017-Nov-25 01:58 UTC. Time now 2017-Nov-25 02:12 UTC.
Position N 59°18' E 005°19'.

Length 86 m; draft 5.4 m.

Type: Cargo ship. MMSI: 311411000.

Date/timePositionNaut miles runAvg speedWind from/ knotsBaromVisibWave heightAir tempDewpointWater temp
2017-Nov-25 01:58N 59°18' E 005°19'0 0.1
2017-Nov-25 01:28N 59°18' E 005°19'0 0.1
2017-Nov-25 00:58N 59°18' E 005°19'0 0.0
2017-Nov-25 00:28N 59°18' E 005°19'0 0.0
2017-Nov-24 23:58N 59°18' E 005°19'0 0.1
2017-Nov-24 23:28N 59°18' E 005°19'0 0.0
2017-Nov-24 22:58N 59°18' E 005°19'0 0.0
2017-Nov-24 22:28N 59°18' E 005°19'0 0.0
2017-Nov-24 21:58N 59°18' E 005°19'0 0.1
2017-Nov-24 21:28N 59°18' E 005°19'0 0.0
2017-Nov-24 20:58N 59°18' E 005°19'0 0.1
2017-Nov-24 20:28N 59°18' E 005°19'0 0.1
2017-Nov-24 19:58N 59°18' E 005°19'0 0.0
2017-Nov-24 19:28N 59°18' E 005°19'0 0.0
2017-Nov-24 18:58N 59°18' E 005°19'0 0.0
2017-Nov-24 18:28N 59°18' E 005°19'0 0.0
2017-Nov-24 17:58N 59°18' E 005°19'0 0.1
2017-Nov-24 17:28N 59°18' E 005°19'0 0.0
2017-Nov-24 16:58N 59°18' E 005°19'0 0.0
2017-Nov-24 16:28N 59°18' E 005°19'0 0.0
2017-Nov-24 15:58N 59°18' E 005°19'0 0.0
2017-Nov-24 15:28N 59°18' E 005°19'0 0.0
2017-Nov-24 14:58N 59°18' E 005°19'0 0.1
2017-Nov-24 14:28N 59°18' E 005°19'0 0.0
2017-Nov-24 13:58N 59°18' E 005°19'0 0.0
2017-Nov-24 13:28N 59°18' E 005°19'0 0.1
2017-Nov-24 12:58N 59°18' E 005°19'0 0.0
2017-Nov-24 12:28N 59°18' E 005°19'0 0.0
2017-Nov-24 11:58N 59°18' E 005°19'0 0.0
2017-Nov-24 11:28N 59°18' E 005°19'0 0.0
2017-Nov-24 10:58N 59°18' E 005°19'0 0.0
2017-Nov-24 10:28N 59°18' E 005°19'0 0.0
2017-Nov-24 09:58N 59°18' E 005°19'0 0.0
2017-Nov-24 09:28N 59°18' E 005°19'1 1.2
2017-Nov-24 09:00N 59°18' E 005°20'4 8.0
2017-Nov-24 08:30N 59°14' E 005°21'4 7.8
2017-Nov-24 08:00N 59°10' E 005°21'3 7.2
2017-Nov-24 07:30N 59°06' E 005°20'510.4
2017-Nov-24 07:00N 59°03' E 005°13'510.4
2017-Nov-24 06:30N 59°05' E 005°03'510.8
2017-Nov-24 06:00N 59°08' E 004°55'96 9.7
2017-Nov-23 20:11N 60°42' E 004°19'210.3
2017-Nov-23 20:00N 60°44' E 004°19'510.5
2017-Nov-23 19:30N 60°49' E 004°19'510.9
2017-Nov-23 19:00N 60°54' E 004°18'511.0
2017-Nov-23 18:30N 60°60' E 004°18'610.8
2017-Nov-23 18:00N 61°05' E 004°19'511.2
2017-Nov-23 17:30N 61°11' E 004°19'611.7
2017-Nov-23 17:00N 61°17' E 004°21'611.8
2017-Nov-23 16:30N 61°23' E 004°22'612.4
2017-Nov-23 16:00N 61°29' E 004°23'612.5
2017-Nov-23 15:30N 61°35' E 004°25'612.4
2017-Nov-23 15:00N 61°41' E 004°27'612.0
2017-Nov-23 14:30N 61°47' E 004°31'612.1
2017-Nov-23 14:00N 61°52' E 004°36'612.3
2017-Nov-23 13:30N 61°58' E 004°41'612.3
2017-Nov-23 12:59N 62°04' E 004°46'612.0
2017-Nov-23 12:30N 62°09' E 004°51'612.1
2017-Nov-23 12:00N 62°15' E 004°56'611.4
2017-Nov-23 11:30N 62°19' E 005°04'612.0
2017-Nov-23 11:00N 62°22' E 005°15'612.3
2017-Nov-23 10:30N 62°26' E 005°26'612.1
2017-Nov-23 10:00N 62°29' E 005°37'611.8
2017-Nov-23 09:30N 62°29' E 005°50'612.7
2017-Nov-23 09:00N 62°27' E 006°03'4 8.7
2017-Nov-23 08:30N 62°31' E 006°09'5 9.9
2017-Nov-23 08:00N 62°35' E 006°14'4 8.3
2017-Nov-23 07:30N 62°39' E 006°17'2 3.9
2017-Nov-23 07:00N 62°41' E 006°14'0 0.0
2017-Nov-23 06:30N 62°41' E 006°14'0 0.0
2017-Nov-23 06:00N 62°41' E 006°14'0 0.0
2017-Nov-23 05:30N 62°41' E 006°14'0 0.0
2017-Nov-23 05:00N 62°41' E 006°14'0 0.0
2017-Nov-23 04:30N 62°41' E 006°14'0 0.0
2017-Nov-23 03:59N 62°41' E 006°14'0 0.9
2017-Nov-23 03:30N 62°40' E 006°15'4 8.7
2017-Nov-23 03:00N 62°39' E 006°24'611.8
2017-Nov-23 02:30N 62°44' E 006°31'612.4
2017-Nov-23 02:00N 62°49' E 006°38'612.1
2017-Nov-23 01:30N 62°54' E 006°46'510.5
2017-Nov-23 01:00N 62°53' E 006°57'0 0.5
2017-Nov-23 00:29N 62°53' E 006°58'0 0.0
2017-Nov-22 23:59N 62°53' E 006°58'0 0.0
2017-Nov-22 23:29N 62°53' E 006°58'0 0.0
2017-Nov-22 22:59N 62°53' E 006°58'0 0.0
2017-Nov-22 22:29N 62°53' E 006°58'1 1.5
2017-Nov-22 22:00N 62°53' E 006°56'1 1.7
2017-Nov-22 21:30N 62°53' E 006°54'4 9.1
2017-Nov-22 21:00N 62°57' E 006°51'611.8
2017-Nov-22 20:30N 63°01' E 007°03'613.0
2017-Nov-22 20:00N 63°03' E 007°16'612.9
2017-Nov-22 19:30N 63°05' E 007°29'  
2017-Nov-18 23:30N 54°57' E 018°20'511.0
2017-Nov-18 23:00N 54°57' E 018°30'510.6
2017-Nov-18 22:31N 54°56' E 018°39'611.5
2017-Nov-18 22:00N 54°52' E 018°47'611.6
2017-Nov-18 21:31N 54°48' E 018°54'510.6
2017-Nov-18 21:00N 54°44' E 018°59'612.6
2017-Nov-18 20:30N 54°38' E 018°56'612.8
2017-Nov-18 20:01N 54°32' E 018°49'612.9
2017-Nov-18 19:31N 54°28' E 018°42'3 6.7
2017-Nov-18 19:01N 54°25' E 018°40'0 0.0
2017-Nov-18 18:30N 54°25' E 018°40'0 0.0
2017-Nov-18 18:00N 54°25' E 018°40'0 0.0
2017-Nov-18 17:30N 54°25' E 018°40'0 0.0
2017-Nov-18 17:00N 54°25' E 018°40'0 0.0
2017-Nov-18 16:30N 54°25' E 018°40'0 0.0
2017-Nov-18 16:00N 54°25' E 018°40'0 0.0
2017-Nov-18 15:30N 54°25' E 018°40'0 0.0
2017-Nov-18 15:00N 54°25' E 018°40'0 0.0
2017-Nov-18 14:30N 54°25' E 018°40'0 0.0
2017-Nov-18 14:00N 54°25' E 018°40'0 0.0
2017-Nov-18 13:30N 54°25' E 018°40'0 0.0
2017-Nov-18 13:00N 54°25' E 018°40'0 0.0
2017-Nov-18 12:30N 54°25' E 018°40'0 0.0
2017-Nov-18 12:00N 54°25' E 018°40'0 0.0
2017-Nov-18 11:30N 54°25' E 018°40'0 0.0
2017-Nov-18 11:00N 54°25' E 018°40'0 0.0
2017-Nov-18 10:30N 54°25' E 018°40'0 0.0
2017-Nov-18 10:00N 54°25' E 018°40'0 0.0
2017-Nov-18 09:30N 54°25' E 018°40'0 0.0
2017-Nov-18 09:00N 54°25' E 018°40'0 0.0
2017-Nov-18 08:30N 54°25' E 018°40'0 0.0
2017-Nov-18 08:00N 54°25' E 018°40'0 0.0
2017-Nov-18 07:30N 54°25' E 018°40'0 0.0
2017-Nov-18 07:00N 54°25' E 018°40'0 0.0
2017-Nov-18 06:30N 54°25' E 018°40'0 0.0
2017-Nov-18 06:00N 54°25' E 018°40'0 0.0
2017-Nov-18 05:30N 54°25' E 018°40'0 0.0
2017-Nov-18 05:00N 54°25' E 018°40'0 0.0
2017-Nov-18 04:30N 54°25' E 018°40'0 0.0
2017-Nov-18 04:00N 54°25' E 018°40'0 0.0
2017-Nov-18 03:30N 54°25' E 018°40'0 0.0
2017-Nov-18 03:00N 54°25' E 018°40'0 0.0
2017-Nov-18 02:30N 54°25' E 018°40'0 0.0
2017-Nov-18 02:00N 54°25' E 018°40'0 0.0
2017-Nov-18 01:30N 54°25' E 018°40'0 0.0
2017-Nov-18 01:00N 54°25' E 018°40'0 0.0
2017-Nov-18 00:30N 54°25' E 018°40'0 0.0
2017-Nov-18 00:00N 54°25' E 018°40'0 0.0
2017-Nov-17 23:30N 54°25' E 018°40'0 0.0
2017-Nov-17 23:00N 54°25' E 018°40'0 0.0
2017-Nov-17 22:30N 54°25' E 018°40'0 0.0
2017-Nov-17 22:00N 54°25' E 018°40'0 0.0
2017-Nov-17 21:30N 54°25' E 018°40'0 0.0
2017-Nov-17 21:00N 54°25' E 018°40'0 0.0
2017-Nov-17 20:30N 54°25' E 018°40'0 0.0
2017-Nov-17 20:00N 54°25' E 018°40'0 0.0
2017-Nov-17 19:30N 54°25' E 018°40'0 0.0
2017-Nov-17 19:00N 54°25' E 018°40'0 0.0
2017-Nov-17 18:30N 54°25' E 018°40'0 0.0
2017-Nov-17 18:00N 54°25' E 018°40'0 0.0
2017-Nov-17 17:30N 54°25' E 018°40'0 0.0
2017-Nov-17 17:00N 54°25' E 018°40'0 0.0
2017-Nov-17 16:30N 54°25' E 018°40'0 0.0
2017-Nov-17 16:00N 54°25' E 018°40'0 0.0
2017-Nov-17 15:30N 54°25' E 018°40'0 0.0
2017-Nov-17 15:00N 54°25' E 018°40'0 0.0
2017-Nov-17 14:30N 54°25' E 018°40'0 0.0
2017-Nov-17 14:00N 54°25' E 018°40'0 0.0
2017-Nov-17 13:30N 54°25' E 018°40'0 0.0
2017-Nov-17 13:00N 54°25' E 018°40'0 0.0
2017-Nov-17 12:30N 54°25' E 018°40'0 0.0
2017-Nov-17 12:00N 54°25' E 018°40'0 0.0
2017-Nov-17 11:30N 54°25' E 018°40'0 0.0
2017-Nov-17 11:00N 54°25' E 018°40'0 0.0
2017-Nov-17 10:30N 54°25' E 018°40'0 0.0
2017-Nov-17 10:00N 54°25' E 018°40'0 0.0
2017-Nov-17 09:30N 54°25' E 018°40'0 0.0
2017-Nov-17 09:00N 54°25' E 018°40'0 0.0
2017-Nov-17 08:28N 54°25' E 018°40'0 0.0
2017-Nov-17 07:55N 54°25' E 018°40'0 0.0
2017-Nov-16 23:46N 54°25' E 018°40'0 0.0
2017-Nov-16 23:31N 54°25' E 018°40'0 0.0
2017-Nov-16 23:00N 54°25' E 018°40'0 0.0
2017-Nov-16 22:27N 54°25' E 018°40'0 0.0
2017-Nov-16 22:00N 54°25' E 018°40'0 0.0
2017-Nov-16 21:30N 54°25' E 018°40'0 0.0
2017-Nov-16 21:00N 54°25' E 018°40'0 0.0
2017-Nov-16 20:30N 54°25' E 018°40'0 0.0
2017-Nov-16 20:00N 54°25' E 018°40'0 0.0
2017-Nov-16 19:30N 54°25' E 018°40'0 0.0
2017-Nov-16 19:00N 54°25' E 018°40'0 0.0
2017-Nov-16 18:31N 54°25' E 018°40'1 1.9
2017-Nov-16 18:01N 54°25' E 018°39'510.3
2017-Nov-16 17:31N 54°30' E 018°44'612.1
2017-Nov-16 17:01N 54°34' E 018°51'611.8
2017-Nov-16 16:31N 54°39' E 018°56'4 7.9
2017-Nov-16 16:01N 54°43' E 018°58'5 9.9
2017-Nov-16 15:31N 54°48' E 018°54'611.9
2017-Nov-16 15:01N 54°51' E 018°46'612.1
2017-Nov-16 14:31N 54°55' E 018°37'612.5
2017-Nov-16 14:01N 54°56' E 018°27'612.5
2017-Nov-16 13:30N 54°56' E 018°16'17811.4
2017-Nov-15 21:49N 55°09' E 013°05'412.3
2017-Nov-15 21:29N 55°11' E 012°59'912.3
2017-Nov-15 20:44N 55°16' E 012°45'312.5
2017-Nov-15 20:31N 55°17' E 012°41'510.2
2017-Nov-15 20:01N 55°22' E 012°38'612.1
2017-Nov-15 19:31N 55°28' E 012°40'611.8
2017-Nov-15 19:01N 55°34' E 012°42'611.8
2017-Nov-15 18:30N 55°40' E 012°41'612.2
2017-Nov-15 18:01N 55°46' E 012°41'611.4
2017-Nov-15 17:31N 55°51' E 012°40'611.9
2017-Nov-15 17:01N 55°57' E 012°38'611.9
2017-Nov-15 16:31N 56°03' E 012°38'611.8
2017-Nov-15 16:00N 56°07' E 012°31'6811.9
2017-Nov-15 10:21N 57°08' E 011°36'512.3
2017-Nov-15 09:56N 57°13' E 011°33'512.6
2017-Nov-15 09:30N 57°18' E 011°31'612.7
2017-Nov-15 08:59N 57°24' E 011°27'612.6
2017-Nov-15 08:31N 57°29' E 011°21'612.7
2017-Nov-15 08:00N 57°33' E 011°12'612.9
2017-Nov-15 07:30N 57°38' E 011°03'612.9
2017-Nov-15 07:00N 57°42' E 010°55'712.6
2017-Nov-15 06:29N 57°46' E 010°45'611.4
2017-Nov-15 05:56N 57°46' E 010°33'  

Dump ship's entire track history